Time;durP1;ratioP1;P1;durP2;ratioP2;P2;SDS_P1;SDS_P2;PMS_P1;PMS_P2;Temp;Humidity;BMP_temperature;BMP_pressure;BME280_temperature;BME280_humidity;BME280_pressure;Samples;Min_cycle;Max_cycle;Signal;HPM_P1;HPM_P2
2023/09/18 00:01:33;;;;;;;0.10;0.10;;;;;;;11.29;82.79;100260.38;5021947;28;20046;-69
2023/09/18 00:03:59;;;;;;;0.10;0.10;;;;;;;11.30;82.90;100264.75;5004646;28;20135;-68
2023/09/18 00:06:25;;;;;;;0.10;0.10;;;;;;;11.37;82.50;100261.78;5002327;28;20046;-69
2023/09/18 00:08:53;;;;;;;0.10;0.10;;;;;;;11.41;82.17;100267.56;5003475;28;20066;-71
2023/09/18 00:11:20;;;;;;;0.10;0.10;;;;;;;11.47;81.90;100266.47;4985740;28;20091;-70
2023/09/18 00:13:46;;;;;;;0.10;0.10;;;;;;;11.49;81.59;100267.84;5002521;28;20077;-70
2023/09/18 00:16:13;;;;;;;0.10;0.10;;;;;;;11.53;81.35;100268.13;5005153;28;20053;-72
2023/09/18 00:18:40;;;;;;;0.43;0.10;;;;;;;11.62;81.01;100261.03;5006906;28;20053;-72
2023/09/18 00:21:07;;;;;;;0.10;0.10;;;;;;;11.69;80.84;100265.44;5005933;28;20050;-71
2023/09/18 00:23:35;;;;;;;0.10;0.10;;;;;;;11.77;80.63;100271.19;5007465;28;20509;-70
2023/09/18 00:26:01;;;;;;;0.10;0.10;;;;;;;11.86;80.31;100267.91;5005136;28;20104;-74
2023/09/18 00:28:27;;;;;;;0.10;0.10;;;;;;;11.85;79.86;100253.41;4986809;28;20050;-69
2023/09/18 00:30:53;;;;;;;0.10;0.10;;;;;;;11.85;79.66;100266.28;5005634;28;20623;-69
2023/09/18 00:33:21;;;;;;;0.10;0.10;;;;;;;11.76;79.99;100244.91;5019725;28;20054;-68
2023/09/18 00:35:47;;;;;;;0.10;0.10;;;;;;;11.81;79.89;100259.69;5004445;28;20129;-69
2023/09/18 00:38:14;;;;;;;0.10;0.10;;;;;;;11.79;79.80;100257.25;5004553;28;20049;-70
2023/09/18 00:40:40;;;;;;;0.10;0.10;;;;;;;11.77;79.73;100262.16;5002438;28;20134;-69
2023/09/18 00:43:07;;;;;;;0.10;0.10;;;;;;;11.78;79.99;100261.88;4986870;28;20372;-69
2023/09/18 00:45:36;;;;;;;0.10;0.10;;;;;;;11.78;79.86;100256.41;5003317;28;20050;-69
2023/09/18 00:48:02;;;;;;;0.10;0.10;;;;;;;11.81;80.19;100263.28;5003705;28;20355;-68
2023/09/18 00:50:31;;;;;;;0.00;0.00;;;;;;;11.79;79.77;100257.25;4985875;28;20054;-69
2023/09/18 00:52:58;;;;;;;0.20;0.10;;;;;;;11.81;79.79;100249.56;5005347;28;20053;-70
2023/09/18 00:55:24;;;;;;;0.10;0.10;;;;;;;11.84;79.54;100259.16;5002673;28;20057;-68
2023/09/18 00:57:50;;;;;;;0.10;0.10;;;;;;;11.85;79.52;100260.78;5005889;28;20041;-68
2023/09/18 01:00:17;;;;;;;0.10;0.10;;;;;;;11.73;79.18;100234.50;5004361;28;20054;-69
2023/09/18 01:02:44;;;;;;;0.10;0.10;;;;;;;11.96;78.86;100256.97;4986794;28;20061;-69
2023/09/18 01:05:11;;;;;;;0.10;0.10;;;;;;;12.08;78.16;100244.97;5003305;28;20057;-68
2023/09/18 01:07:38;;;;;;;0.10;0.10;;;;;;;12.18;77.59;100254.00;5004239;28;20046;-69
2023/09/18 01:10:08;;;;;;;0.10;0.10;;;;;;;12.31;77.23;100252.59;5005818;28;20049;-69
2023/09/18 01:12:43;;;;;;;0.10;0.10;;;;;;;12.39;76.21;100247.69;5003276;28;20107;-68
2023/09/18 01:15:15;;;;;;;0.10;0.10;;;;;;;12.44;75.51;100243.00;5003281;28;20053;-68
2023/09/18 01:17:42;;;;;;;0.10;0.10;;;;;;;12.51;74.83;100236.41;4984948;28;20046;-68
2023/09/18 01:20:10;;;;;;;0.10;0.10;;;;;;;12.55;75.52;100232.00;4985111;28;20041;-68
2023/09/18 01:22:38;;;;;;;0.10;0.10;;;;;;;12.59;75.43;100239.41;5002621;28;20424;-68
2023/09/18 01:25:06;;;;;;;0.10;0.10;;;;;;;12.62;75.34;100241.59;4987833;28;20061;-68
2023/09/18 01:27:33;;;;;;;0.10;0.10;;;;;;;12.67;74.61;100234.47;4987588;28;20049;-69
2023/09/18 01:29:59;;;;;;;0.10;0.10;;;;;;;12.67;74.43;100234.47;5001786;28;20086;-69
2023/09/18 01:32:30;;;;;;;0.10;0.10;;;;;;;12.71;74.48;100225.38;5004546;28;20049;-69
2023/09/18 01:35:00;;;;;;;0.10;0.10;;;;;;;12.72;74.03;100226.22;5001439;28;20041;-69
2023/09/18 01:37:29;;;;;;;0.10;0.10;;;;;;;12.67;74.60;100226.25;4999824;28;20131;-69
2023/09/18 01:39:59;;;;;;;0.10;0.10;;;;;;;12.67;74.59;100232.53;5005114;28;20061;-69
2023/09/18 01:42:26;;;;;;;0.10;0.10;;;;;;;12.66;74.63;100227.34;5004262;28;20508;-71
2023/09/18 01:44:53;;;;;;;0.10;0.10;;;;;;;12.65;74.75;100218.28;5000664;28;20428;-71
2023/09/18 01:47:21;;;;;;;0.10;0.10;;;;;;;12.66;74.78;100216.38;5001333;28;20057;-71
2023/09/18 01:49:47;;;;;;;0.10;0.10;;;;;;;12.64;74.47;100213.91;5003162;28;20056;-72
2023/09/18 01:52:14;;;;;;;0.10;0.10;;;;;;;12.62;74.27;100216.91;5002429;28;20149;-69
2023/09/18 01:54:41;;;;;;;0.10;0.10;;;;;;;12.61;74.55;100217.19;5018027;28;20045;-71
2023/09/18 01:57:09;;;;;;;0.10;0.10;;;;;;;12.62;74.96;100210.63;5003837;28;20065;-71
2023/09/18 01:59:35;;;;;;;0.10;0.10;;;;;;;12.63;74.67;100209.50;4983874;28;20100;-72
2023/09/18 02:02:06;;;;;;;;;;;;;;;12.60;74.56;100199.91;5005591;28;20053;-71
2023/09/18 02:04:33;;;;;;;0.10;0.10;;;;;;;12.56;74.58;100209.81;5004128;28;20016;-71
2023/09/18 02:06:59;;;;;;;0.10;0.10;;;;;;;12.51;74.97;100206.25;5006209;28;20564;-70
2023/09/18 02:09:26;;;;;;;0.10;0.10;;;;;;;12.47;75.18;100204.06;4987457;28;20421;-70
2023/09/18 02:11:52;;;;;;;0.08;0.08;;;;;;;12.43;75.32;100200.25;5005719;28;20042;-68
2023/09/18 02:14:21;;;;;;;0.10;0.10;;;;;;;12.40;75.76;100197.22;5004204;28;20193;-68
2023/09/18 02:16:49;;;;;;;0.10;0.10;;;;;;;12.37;76.14;100189.56;5006292;28;20616;-69
2023/09/18 02:19:20;;;;;;;0.10;0.10;;;;;;;12.37;76.13;100192.31;5005026;28;20436;-69
2023/09/18 02:21:46;;;;;;;0.10;0.10;;;;;;;12.42;76.05;100198.59;5006384;28;20053;-69
2023/09/18 02:24:13;;;;;;;0.10;0.10;;;;;;;12.45;76.14;100203.53;5003236;28;20049;-71
2023/09/18 02:26:39;;;;;;;0.10;0.10;;;;;;;12.52;75.77;100203.25;5003178;28;20099;-73
2023/09/18 02:29:11;;;;;;;0.10;0.10;;;;;;;12.59;75.13;100201.00;5005353;28;20524;-72
2023/09/18 02:31:39;;;;;;;0.10;0.10;;;;;;;12.63;74.86;100193.84;5006747;28;20076;-71
2023/09/18 02:34:05;;;;;;;0.10;0.10;;;;;;;12.65;74.65;100190.84;5000715;28;20049;-72
2023/09/18 02:36:31;;;;;;;0.10;0.10;;;;;;;12.61;74.76;100187.03;5004156;28;20057;-71
2023/09/18 02:38:58;;;;;;;0.10;0.10;;;;;;;12.56;75.13;100196.09;4971663;28;20443;-71
2023/09/18 02:41:25;;;;;;;;;;;;;;;12.51;75.37;100190.63;4972592;28;20054;-69
2023/09/18 02:43:51;;;;;;;0.10;0.10;;;;;;;12.46;75.19;100193.34;5005554;28;19991;-68
2023/09/18 02:46:17;;;;;;;0.10;0.10;;;;;;;12.41;75.41;100183.25;5003520;28;20517;-68
2023/09/18 02:48:45;;;;;;;0.10;0.10;;;;;;;12.34;75.62;100180.78;5003980;28;20512;-72
2023/09/18 02:51:12;;;;;;;0.10;0.10;;;;;;;12.27;76.39;100188.47;5005499;28;20096;-72
2023/09/18 02:53:38;;;;;;;0.10;0.10;;;;;;;12.22;76.57;100184.91;4987259;28;20531;-72
2023/09/18 02:56:04;;;;;;;0.20;0.20;;;;;;;12.15;76.89;100180.53;5002776;28;20058;-70
2023/09/18 02:58:31;;;;;;;0.10;0.10;;;;;;;12.10;77.04;100177.81;5003090;28;20517;-70
2023/09/18 03:01:03;;;;;;;0.10;0.10;;;;;;;12.06;77.31;100176.69;4987228;28;20061;-68
2023/09/18 03:03:30;;;;;;;0.20;0.20;;;;;;;12.10;77.30;100176.97;4987598;28;20053;-68
2023/09/18 03:06:03;;;;;;;0.10;0.10;;;;;;;12.09;77.32;100170.66;4987551;28;20054;-68
2023/09/18 03:08:29;;;;;;;0.10;0.10;;;;;;;12.19;77.13;100180.81;4988382;28;20058;-69
2023/09/18 03:10:56;;;;;;;0.10;0.10;;;;;;;12.19;77.17;100167.91;5003948;28;20201;-68
2023/09/18 03:13:23;;;;;;;0.10;0.10;;;;;;;12.25;76.71;100171.47;5002799;28;20072;-69
2023/09/18 03:15:49;;;;;;;0.10;0.10;;;;;;;12.25;76.63;100171.47;5004156;28;20062;-69
2023/09/18 03:18:16;;;;;;;0.10;0.10;;;;;;;12.26;76.96;100180.53;5003631;28;20053;-69
2023/09/18 03:20:43;;;;;;;0.10;0.10;;;;;;;12.26;77.09;100169.56;5003243;28;20084;-69
2023/09/18 03:23:11;;;;;;;0.10;0.10;;;;;;;12.28;77.14;100173.66;5003403;28;20145;-68
2023/09/18 03:25:38;;;;;;;0.10;0.10;;;;;;;12.34;77.37;100178.06;5001464;28;20046;-68
2023/09/18 03:28:05;;;;;;;0.43;0.10;;;;;;;12.40;77.24;100183.50;5003814;28;20069;-72
2023/09/18 03:30:33;;;;;;;0.10;0.10;;;;;;;12.50;76.57;100183.50;4986238;28;20045;-70
2023/09/18 03:33:01;;;;;;;0.10;0.10;;;;;;;12.54;76.69;100179.09;4986142;28;20148;-69
2023/09/18 03:35:31;;;;;;;0.10;0.10;;;;;;;12.57;76.53;100173.03;4988579;28;20331;-69
2023/09/18 03:37:57;;;;;;;0.10;0.10;;;;;;;12.57;76.05;100172.25;5003679;28;20293;-69
2023/09/18 03:40:25;;;;;;;0.10;0.10;;;;;;;12.66;76.11;100178.78;5019312;28;20057;-69
2023/09/18 03:42:51;;;;;;;0.20;0.20;;;;;;;12.61;76.14;100168.63;4986088;28;20053;-69
2023/09/18 03:45:19;;;;;;;0.10;0.10;;;;;;;12.76;75.56;100175.16;5003556;28;20104;-70
2023/09/18 03:47:49;;;;;;;0.10;0.10;;;;;;;12.83;75.30;100174.88;5002317;28;20472;-71
2023/09/18 03:50:16;;;;;;;0.10;0.10;;;;;;;12.85;75.13;100183.63;5002263;28;20191;-72
2023/09/18 03:52:43;;;;;;;0.10;0.10;;;;;;;12.87;75.10;100173.19;5002789;28;20045;-71
2023/09/18 03:55:09;;;;;;;0.10;0.10;;;;;;;12.90;75.07;100181.69;5003288;28;20050;-73
2023/09/18 03:57:45;;;;;;;0.10;0.10;;;;;;;12.88;75.01;100183.91;5003551;28;20512;-72
2023/09/18 04:00:12;;;;;;;0.10;0.10;;;;;;;12.88;74.91;100181.16;5002721;28;20085;-73
2023/09/18 04:02:41;;;;;;;0.10;0.10;;;;;;;12.90;75.16;100178.16;5003016;28;20046;-74
2023/09/18 04:05:07;;;;;;;0.10;0.10;;;;;;;12.89;74.79;100174.56;5002975;28;20084;-67
2023/09/18 04:07:34;;;;;;;0.10;0.10;;;;;;;12.90;74.73;100175.41;5002896;28;20054;-68
2023/09/18 04:10:03;;;;;;;0.15;0.15;;;;;;;12.97;74.52;100178.66;4988088;28;20540;-68
2023/09/18 04:12:33;;;;;;;0.10;0.10;;;;;;;12.98;74.54;100174.00;5005725;28;20054;-72
2023/09/18 04:15:04;;;;;;;0.10;0.10;;;;;;;12.99;74.76;100167.41;4987835;28;20137;-72
2023/09/18 04:17:32;;;;;;;0.10;0.10;;;;;;;13.02;74.64;100178.63;5005710;28;20069;-72
2023/09/18 04:19:58;;;;;;;;;;;;;;;13.04;74.68;100181.09;5005846;28;20076;-71
2023/09/18 04:22:24;;;;;;;0.10;0.10;;;;;;;13.07;73.98;100174.22;5002695;28;20403;-69
2023/09/18 04:24:50;;;;;;;0.10;0.10;;;;;;;13.12;74.00;100175.03;5006911;28;20056;-72
2023/09/18 04:27:17;;;;;;;0.10;0.10;;;;;;;13.16;73.85;100176.09;5004929;28;20399;-72
2023/09/18 04:29:43;;;;;;;0.10;0.10;;;;;;;13.21;73.76;100167.00;5007359;28;20511;-69
2023/09/18 04:32:11;;;;;;;0.22;0.20;;;;;;;13.22;73.97;100170.56;5011652;28;20361;-68
2023/09/18 04:34:39;;;;;;;0.20;0.20;;;;;;;13.28;73.76;100164.75;5006824;28;20105;-68
2023/09/18 04:37:05;;;;;;;0.10;0.10;;;;;;;13.29;73.25;100160.91;5002198;28;20053;-69
2023/09/18 04:39:33;;;;;;;0.10;0.10;;;;;;;13.31;73.43;100166.94;5001892;28;20077;-69
2023/09/18 04:42:03;;;;;;;0.13;0.13;;;;;;;13.39;73.25;100165.50;4987050;28;20057;-68
2023/09/18 04:44:30;;;;;;;0.10;0.10;;;;;;;13.44;72.82;100168.28;5005531;28;20049;-68
2023/09/18 04:46:57;;;;;;;0.10;0.10;;;;;;;13.41;72.99;100166.03;5006274;28;20041;-68
2023/09/18 04:49:26;;;;;;;0.10;0.10;;;;;;;13.42;73.17;100162.19;5000584;28;20426;-69
2023/09/18 04:51:52;;;;;;;0.10;0.10;;;;;;;13.46;73.46;100165.22;4995293;28;20137;-69
2023/09/18 04:54:19;;;;;;;0.10;0.10;;;;;;;13.51;73.10;100156.97;4994229;28;20052;-68
2023/09/18 04:56:45;;;;;;;0.20;0.20;;;;;;;13.53;72.83;100159.41;4972682;28;20295;-72
2023/09/18 04:59:12;;;;;;;0.10;0.10;;;;;;;13.50;72.96;100163.53;4995765;28;20460;-72
2023/09/18 05:01:39;;;;;;;0.10;0.10;;;;;;;13.52;72.84;100161.34;4995597;28;20288;-73
2023/09/18 05:04:05;;;;;;;0.20;0.20;;;;;;;13.51;72.88;100165.19;4995628;28;20228;-73
2023/09/18 05:06:33;;;;;;;0.10;0.10;;;;;;;13.55;73.31;100168.19;4996459;28;20054;-73
2023/09/18 05:08:59;;;;;;;0.20;0.20;;;;;;;13.61;73.02;100167.06;5002086;28;20484;-73
2023/09/18 05:11:25;;;;;;;0.10;0.10;;;;;;;13.57;72.71;100143.97;5003988;28;20131;-72
2023/09/18 05:13:52;;;;;;;0.20;0.20;;;;;;;13.76;72.49;100166.09;5003003;28;20048;-73
2023/09/18 05:16:19;;;;;;;0.10;0.10;;;;;;;13.68;72.77;100161.22;4979398;28;20505;-73
2023/09/18 05:18:45;;;;;;;0.20;0.20;;;;;;;13.55;73.00;100147.03;5003029;28;20137;-72
2023/09/18 05:21:11;;;;;;;0.43;0.30;;;;;;;13.58;73.50;100160.19;5005756;28;20069;-72
2023/09/18 05:23:39;;;;;;;0.20;0.20;;;;;;;13.65;73.59;100172.78;4984031;28;20041;-73
2023/09/18 05:26:04;;;;;;;;;;;;;;;13.71;73.40;100168.91;5022101;28;20053;-68
2023/09/18 05:28:31;;;;;;;0.20;0.20;;;;;;;13.80;72.84;100172.66;5005272;28;19932;-68
2023/09/18 05:30:57;;;;;;;0.20;0.20;;;;;;;13.93;72.45;100173.09;5004585;28;20046;-73
2023/09/18 05:33:24;;;;;;;0.20;0.20;;;;;;;14.06;71.83;100175.19;4995748;28;20088;-73
2023/09/18 05:35:51;;;;;;;0.20;0.20;;;;;;;14.19;71.28;100173.69;4997539;28;20060;-73
2023/09/18 05:38:17;;;;;;;0.20;0.20;;;;;;;14.26;71.36;100181.59;4999342;28;20042;-72
2023/09/18 05:40:45;;;;;;;0.20;0.20;;;;;;;14.32;71.44;100174.94;4985280;28;20049;-68
2023/09/18 05:43:12;;;;;;;0.30;0.30;;;;;;;14.46;70.73;100180.56;5002943;28;20060;-73
2023/09/18 05:45:38;;;;;;;0.20;0.20;;;;;;;14.54;70.57;100179.94;5001316;28;20060;-68
2023/09/18 05:48:05;;;;;;;0.20;0.20;;;;;;;14.64;70.30;100181.75;5003242;28;20042;-67
2023/09/18 05:50:32;;;;;;;0.20;0.20;;;;;;;14.79;69.89;100178.00;5006744;28;20053;-72
2023/09/18 05:53:00;;;;;;;0.30;0.30;;;;;;;14.93;68.95;100182.81;5005982;28;20077;-73
2023/09/18 05:55:27;;;;;;;0.20;0.20;;;;;;;14.85;69.08;100160.34;5001304;28;20080;-68
2023/09/18 05:57:55;;;;;;;0.20;0.20;;;;;;;14.92;68.96;100176.50;5004191;28;20085;-68
2023/09/18 06:00:21;;;;;;;0.20;0.20;;;;;;;14.96;68.47;100173.97;5002291;28;20335;-73
2023/09/18 06:02:48;;;;;;;0.30;0.30;;;;;;;15.01;68.67;100174.72;5002299;28;20041;-72
2023/09/18 06:05:15;;;;;;;0.22;0.22;;;;;;;15.10;68.33;100168.56;4993633;28;20696;-72
2023/09/18 06:07:42;;;;;;;0.20;0.20;;;;;;;15.21;67.85;100171.97;4991191;28;20049;-72
2023/09/18 06:10:09;;;;;;;0.20;0.20;;;;;;;15.26;67.17;100166.41;4996634;28;20073;-72
2023/09/18 06:12:38;;;;;;;0.25;0.25;;;;;;;15.30;67.04;100161.94;5001845;28;20298;-72
2023/09/18 06:15:11;;;;;;;0.20;0.20;;;;;;;15.44;67.07;100170.28;4980341;28;20540;-72
2023/09/18 06:17:39;;;;;;;0.30;0.30;;;;;;;15.46;66.69;100165.28;4972002;28;20054;-73
2023/09/18 06:20:09;;;;;;;0.30;0.30;;;;;;;15.54;66.69;100172.88;4999040;28;20076;-73
2023/09/18 06:22:37;;;;;;;0.30;0.30;;;;;;;15.74;66.17;100168.16;5001497;28;20042;-73
2023/09/18 06:25:04;;;;;;;0.30;0.30;;;;;;;16.01;65.11;100164.69;5003927;28;20057;-72
2023/09/18 06:27:32;;;;;;;0.30;0.30;;;;;;;16.19;64.11;100172.41;5006520;28;20560;-72
2023/09/18 06:29:58;;;;;;;0.30;0.30;;;;;;;16.38;63.59;100183.34;5003715;28;20058;-72
2023/09/18 06:32:26;;;;;;;0.30;0.30;;;;;;;16.19;63.69;100148.38;5004854;28;20054;-72
2023/09/18 06:34:52;;;;;;;0.38;0.38;;;;;;;16.55;62.93;100169.78;5004722;28;20509;-73
2023/09/18 06:37:20;;;;;;;0.30;0.30;;;;;;;16.72;62.34;100173.88;5005255;28;20049;-73
2023/09/18 06:39:46;;;;;;;0.30;0.30;;;;;;;17.01;61.68;100179.09;5001701;28;20046;-69
2023/09/18 06:42:13;;;;;;;0.30;0.30;;;;;;;17.23;60.71;100176.69;4977562;28;20053;-72
2023/09/18 06:44:39;;;;;;;0.30;0.30;;;;;;;17.32;59.78;100180.34;4993514;28;20667;-73
2023/09/18 06:47:05;;;;;;;0.30;0.30;;;;;;;17.40;59.38;100182.38;5001808;28;20046;-69
2023/09/18 06:49:34;;;;;;;0.30;0.30;;;;;;;17.67;59.02;100183.41;5003468;28;20032;-70
2023/09/18 06:52:00;;;;;;;0.30;0.30;;;;;;;17.62;58.79;100175.22;5000861;28;20053;-69
2023/09/18 06:54:26;;;;;;;0.30;0.30;;;;;;;17.31;58.85;100183.44;4999887;28;20493;-68
2023/09/18 06:56:53;;;;;;;0.30;0.30;;;;;;;17.08;60.09;100177.84;5002433;28;20541;-68
2023/09/18 06:59:19;;;;;;;0.20;0.20;;;;;;;17.08;60.43;100180.59;4997364;28;20092;-69
2023/09/18 07:01:46;;;;;;;0.20;0.20;;;;;;;16.97;60.65;100163.41;5006067;28;20634;-69
2023/09/18 07:04:12;;;;;;;0.30;0.30;;;;;;;16.94;61.06;100177.84;5006223;28;20089;-73
2023/09/18 07:06:40;;;;;;;0.30;0.30;;;;;;;16.74;61.03;100182.66;5008982;28;20308;-73
2023/09/18 07:09:07;;;;;;;0.30;0.30;;;;;;;16.65;61.53;100174.28;5007515;28;20315;-73
2023/09/18 07:11:33;;;;;;;0.30;0.30;;;;;;;16.71;61.29;100184.09;5009450;28;20078;-73
2023/09/18 07:14:05;;;;;;;0.20;0.20;;;;;;;16.83;61.11;100188.28;5009300;28;20579;-72
2023/09/18 07:16:33;;;;;;;0.30;0.30;;;;;;;16.90;61.16;100191.44;5003735;28;20172;-73
2023/09/18 07:19:01;;;;;;;0.57;0.30;;;;;;;16.96;60.68;100204.03;4988289;28;20076;-73
2023/09/18 07:21:29;;;;;;;0.30;0.30;;;;;;;16.98;61.12;100198.19;5003019;28;20056;-73
2023/09/18 07:23:57;;;;;;;0.30;0.30;;;;;;;17.01;60.70;100203.13;4986840;28;20038;-73
2023/09/18 07:26:23;;;;;;;0.28;0.28;;;;;;;17.07;60.55;100206.59;5009635;28;20509;-73
2023/09/18 07:28:50;;;;;;;0.30;0.30;;;;;;;17.06;60.29;100202.19;5011436;28;20049;-67
2023/09/18 07:31:16;;;;;;;0.20;0.20;;;;;;;17.02;60.40;100210.31;4990029;28;20060;-73
2023/09/18 07:33:42;;;;;;;0.30;0.30;;;;;;;17.11;60.19;100211.19;5009685;28;20439;-73
2023/09/18 07:36:10;;;;;;;0.25;0.25;;;;;;;17.16;59.89;100204.75;5005961;28;20058;-73
2023/09/18 07:38:37;;;;;;;;;;;;;;;17.18;60.21;100219.06;5007148;28;20042;-74
2023/09/18 07:41:05;;;;;;;0.30;0.30;;;;;;;17.23;59.86;100209.84;5005637;28;19931;-73
2023/09/18 07:43:31;;;;;;;0.20;0.20;;;;;;;17.25;59.71;100218.66;5005398;28;20038;-73
2023/09/18 07:45:59;;;;;;;0.20;0.20;;;;;;;17.22;59.83;100205.47;4993535;28;20057;-72
2023/09/18 07:48:25;;;;;;;0.25;0.25;;;;;;;17.18;59.70;100223.78;5005419;28;20137;-73
2023/09/18 07:50:52;;;;;;;0.30;0.30;;;;;;;16.99;60.54;100231.06;5006581;28;20182;-73
2023/09/18 07:53:18;;;;;;;0.30;0.30;;;;;;;17.01;60.23;100225.22;5005919;28;20049;-73
2023/09/18 07:55:44;;;;;;;0.30;0.30;;;;;;;17.14;60.40;100237.41;5010459;28;20946;-73
2023/09/18 07:58:13;;;;;;;0.28;0.28;;;;;;;17.19;60.09;100226.22;5008274;28;20305;-68
2023/09/18 08:00:40;;;;;;;0.30;0.30;;;;;;;17.17;60.14;100234.00;4990405;28;20104;-68
2023/09/18 08:03:06;;;;;;;0.20;0.20;;;;;;;17.34;59.62;100236.16;5008780;28;20551;-69
2023/09/18 08:05:32;;;;;;;0.30;0.30;;;;;;;17.52;59.34;100233.53;5005365;28;20521;-68
2023/09/18 08:07:59;;;;;;;0.30;0.30;;;;;;;17.71;58.57;100236.13;5007128;28;20072;-73
2023/09/18 08:10:25;;;;;;;0.30;0.30;;;;;;;17.88;58.04;100232.69;5006806;28;20046;-73
2023/09/18 08:12:53;;;;;;;0.30;0.30;;;;;;;18.05;57.65;100234.81;5004349;28;20069;-73
2023/09/18 08:15:21;;;;;;;0.30;0.30;;;;;;;18.23;56.96;100227.41;5006625;28;20048;-73
2023/09/18 08:17:49;;;;;;;0.30;0.30;;;;;;;18.38;56.37;100226.22;4988750;28;20054;-74
2023/09/18 08:20:15;;;;;;;0.30;0.30;;;;;;;18.32;56.26;100221.94;5005284;28;20513;-73
2023/09/18 08:22:43;;;;;;;0.30;0.30;;;;;;;18.19;56.81;100220.09;5006016;28;20417;-74
2023/09/18 08:25:10;;;;;;;0.20;0.20;;;;;;;18.06;57.11;100221.78;4998786;28;20791;-72
2023/09/18 08:27:40;;;;;;;0.20;0.20;;;;;;;17.75;57.91;100222.50;4976469;28;20562;-72
2023/09/18 08:30:07;;;;;;;0.30;0.30;;;;;;;17.54;58.77;100226.56;5003955;28;20049;-73
2023/09/18 08:32:35;;;;;;;0.30;0.30;;;;;;;17.48;58.96;100222.28;5008202;28;20048;-68
2023/09/18 08:35:04;;;;;;;0.30;0.30;;;;;;;17.58;58.67;100229.53;5006023;28;20069;-68
2023/09/18 08:37:30;;;;;;;0.30;0.30;;;;;;;17.75;58.42;100230.78;5003992;28;20050;-68
2023/09/18 08:39:57;;;;;;;0.30;0.30;;;;;;;17.85;58.01;100230.56;5004018;28;20108;-68
2023/09/18 08:42:24;;;;;;;0.30;0.30;;;;;;;17.88;57.97;100234.66;4966707;28;20053;-72
2023/09/18 08:44:54;;;;;;;0.30;0.30;;;;;;;17.88;57.44;100226.34;5004540;28;20046;-73
2023/09/18 08:47:21;;;;;;;0.30;0.30;;;;;;;17.81;57.80;100219.31;5002055;28;20076;-73
2023/09/18 08:49:50;;;;;;;0.30;0.30;;;;;;;18.02;57.74;100224.34;5005010;28;20144;-74
2023/09/18 08:52:17;;;;;;;0.30;0.30;;;;;;;18.34;56.43;100228.00;4998793;28;20343;-73
2023/09/18 08:54:44;;;;;;;0.30;0.30;;;;;;;18.69;55.88;100221.78;5001934;28;20058;-68
2023/09/18 08:57:11;;;;;;;0.63;0.40;;;;;;;19.08;54.75;100220.16;5000823;28;20509;-69
2023/09/18 08:59:39;;;;;;;0.40;0.40;;;;;;;19.37;54.29;100215.97;4985970;28;20062;-68
2023/09/18 09:02:06;;;;;;;0.30;0.30;;;;;;;19.51;54.27;100204.72;5004967;28;20156;-68
2023/09/18 09:04:32;;;;;;;0.30;0.30;;;;;;;19.63;53.46;100204.06;5000249;28;20147;-69
2023/09/18 09:07:00;;;;;;;0.30;0.30;;;;;;;19.53;53.99;100208.00;5002820;28;20073;-68
2023/09/18 09:09:28;;;;;;;0.30;0.30;;;;;;;19.23;54.81;100213.34;5003230;28;20312;-68
2023/09/18 09:11:54;;;;;;;0.30;0.30;;;;;;;18.93;55.09;100206.72;5004816;28;20111;-69
2023/09/18 09:14:28;;;;;;;0.30;0.30;;;;;;;18.69;55.60;100213.47;5001848;28;20048;-68
2023/09/18 09:16:57;;;;;;;0.30;0.30;;;;;;;18.52;56.31;100215.03;5002517;28;20049;-73
2023/09/18 09:19:31;;;;;;;0.30;0.30;;;;;;;18.37;56.53;100221.00;5004337;28;20065;-72
2023/09/18 09:21:58;;;;;;;0.30;0.30;;;;;;;18.38;56.70;100220.69;5003001;28;20177;-72
2023/09/18 09:24:37;;;;;;;;;;;;;;;18.54;56.56;100221.06;5006802;28;20116;-72
2023/09/18 09:27:04;;;;;;;0.30;0.30;;;;;;;18.66;55.99;100223.25;5003499;28;19925;-73
2023/09/18 09:29:31;;;;;;;0.30;0.30;;;;;;;18.66;55.82;100223.25;5007764;28;20058;-72
2023/09/18 09:32:12;;;;;;;0.30;0.30;;;;;;;18.60;55.93;100224.53;5004072;28;20413;-73
2023/09/18 09:34:40;;;;;;;0.30;0.30;;;;;;;18.35;56.60;100224.09;5000523;28;20532;-73
2023/09/18 09:37:08;;;;;;;0.30;0.30;;;;;;;17.99;57.91;100225.78;5001854;28;20464;-72
2023/09/18 09:39:34;;;;;;;;;;;;;;;17.66;59.55;100231.56;5002647;28;20046;-68
2023/09/18 09:42:03;;;;;;;0.30;0.30;;;;;;;17.60;59.70;100232.78;5005583;28;19932;-72
2023/09/18 09:44:33;;;;;;;0.20;0.20;;;;;;;17.51;60.31;100232.72;4970714;28;20046;-73
2023/09/18 09:47:00;;;;;;;0.20;0.20;;;;;;;17.22;60.76;100233.88;5000982;28;20658;-72
2023/09/18 09:49:33;;;;;;;0.30;0.30;;;;;;;17.03;62.15;100245.09;5002750;28;20201;-72
2023/09/18 09:51:59;;;;;;;0.20;0.20;;;;;;;16.73;63.24;100247.28;5003975;28;20038;-73
2023/09/18 09:54:34;;;;;;;0.30;0.30;;;;;;;16.49;64.19;100240.00;5002993;28;20042;-73
2023/09/18 09:57:04;;;;;;;0.30;0.30;;;;;;;16.42;64.78;100248.66;4993170;28;20042;-73
2023/09/18 09:59:33;;;;;;;0.20;0.20;;;;;;;16.37;65.72;100232.22;4999021;28;20064;-73
2023/09/18 10:01:59;;;;;;;0.30;0.30;;;;;;;16.44;65.86;100229.84;5003649;28;20041;-73
2023/09/18 10:04:28;;;;;;;0.30;0.30;;;;;;;16.56;66.16;100223.03;5007179;28;20054;-73
2023/09/18 10:06:58;;;;;;;0.20;0.20;;;;;;;16.86;65.76;100229.91;5005693;28;20360;-73
2023/09/18 10:09:28;;;;;;;0.30;0.30;;;;;;;17.21;64.58;100228.69;5005964;28;20053;-68
2023/09/18 10:11:58;;;;;;;0.30;0.30;;;;;;;17.35;64.56;100220.38;5003394;28;20046;-68
2023/09/18 10:14:35;;;;;;;0.30;0.30;;;;;;;17.54;64.10;100217.47;5004702;28;20535;-68
2023/09/18 10:17:18;;;;;;;0.30;0.30;;;;;;;17.81;63.56;100224.03;4988779;28;20049;-73
2023/09/18 10:19:53;;;;;;;0.30;0.30;;;;;;;18.05;63.05;100218.22;5000529;28;20452;-73
2023/09/18 10:22:26;;;;;;;0.30;0.30;;;;;;;18.27;61.69;100233.16;5002706;28;20059;-73
2023/09/18 10:25:00;;;;;;;0.30;0.30;;;;;;;18.42;60.70;100243.81;4998876;28;20532;-68
2023/09/18 10:27:28;;;;;;;0.30;0.30;;;;;;;18.46;60.76;100238.47;4991079;28;20050;-71
2023/09/18 10:29:57;;;;;;;0.30;0.30;;;;;;;18.40;60.21;100236.94;5007237;28;20046;-73
2023/09/18 10:32:28;;;;;;;0.30;0.30;;;;;;;18.22;61.06;100238.81;5004873;28;20514;-68
2023/09/18 10:34:54;;;;;;;0.30;0.30;;;;;;;18.09;61.41;100246.88;5005486;28;20149;-68
2023/09/18 10:37:22;;;;;;;0.30;0.30;;;;;;;18.06;61.51;100247.50;5006641;28;20460;-68
2023/09/18 10:39:53;;;;;;;0.30;0.30;;;;;;;17.99;61.83;100242.38;5006039;28;20675;-72
2023/09/18 10:42:22;;;;;;;0.30;0.30;;;;;;;18.07;61.68;100246.38;5001480;28;20137;-69
2023/09/18 10:44:50;;;;;;;0.30;0.30;;;;;;;18.29;61.25;100241.94;5003989;28;20069;-69
2023/09/18 10:47:18;;;;;;;0.30;0.30;;;;;;;18.48;60.27;100241.72;5004634;28;20050;-67
2023/09/18 10:49:44;;;;;;;0.30;0.30;;;;;;;18.58;60.22;100240.63;5006764;28;20140;-68
2023/09/18 10:52:12;;;;;;;0.30;0.30;;;;;;;18.69;59.77;100242.00;5007007;28;20068;-68
2023/09/18 10:54:39;;;;;;;0.32;0.32;;;;;;;18.75;58.84;100226.06;5007536;28;20050;-69
2023/09/18 10:57:05;;;;;;;0.30;0.30;;;;;;;19.19;58.25;100242.00;5007816;28;20107;-68
2023/09/18 10:59:32;;;;;;;0.30;0.30;;;;;;;19.37;57.19;100234.56;5006869;28;20096;-68
2023/09/18 11:02:05;;;;;;;0.30;0.30;;;;;;;19.50;56.79;100233.59;4990790;28;20137;-73
2023/09/18 11:04:34;;;;;;;0.70;0.70;;;;;;;19.90;56.18;100227.06;5003415;28;20072;-69
2023/09/18 11:07:05;;;;;;;0.50;0.50;;;;;;;21.65;51.77;100221.97;4985524;28;20045;-72
2023/09/18 11:09:39;;;;;;;0.60;0.60;;;;;;;22.78;48.86;100229.47;5006423;28;20096;-73
2023/09/18 11:12:06;;;;;;;0.40;0.40;;;;;;;23.12;47.54;100234.16;4997305;28;20145;-73
2023/09/18 11:14:46;;;;;;;0.50;0.50;;;;;;;23.20;46.93;100222.88;5004780;28;20065;-73
2023/09/18 11:17:33;;;;;;;0.40;0.40;;;;;;;23.51;46.17;100226.19;5006539;28;20049;-74
2023/09/18 11:20:11;;;;;;;0.40;0.40;;;;;;;23.74;45.15;100217.31;5006666;28;20081;-73
2023/09/18 11:22:38;;;;;;;0.30;0.30;;;;;;;24.31;44.28;100220.06;5008163;28;20049;-73
2023/09/18 11:25:34;;;;;;;0.40;0.40;;;;;;;23.87;44.56;100232.81;5010269;28;20050;-73
2023/09/18 11:28:01;;;;;;;0.30;0.30;;;;;;;23.15;46.19;100227.88;5006447;28;20052;-73
2023/09/18 11:30:28;;;;;;;0.40;0.40;;;;;;;22.52;47.79;100221.44;5008941;28;20215;-74